sensor_id;sensor_type;location;lat;lon;timestamp;temperature;humidity
51500;DHT22;39101;53.478;6.158;2024-01-30T00:02:12;5.00;99.90
51500;DHT22;39101;53.478;6.158;2024-01-30T00:04:38;4.90;99.90
51500;DHT22;39101;53.478;6.158;2024-01-30T00:07:04;5.10;99.90
51500;DHT22;39101;53.478;6.158;2024-01-30T00:09:30;5.00;99.90
51500;DHT22;39101;53.478;6.158;2024-01-30T00:11:56;5.10;99.90
51500;DHT22;39101;53.478;6.158;2024-01-30T00:14:22;5.00;99.90
51500;DHT22;39101;53.478;6.158;2024-01-30T00:16:51;5.10;99.90
51500;DHT22;39101;53.478;6.158;2024-01-30T00:19:17;5.00;99.90
51500;DHT22;39101;53.478;6.158;2024-01-30T00:21:43;5.00;99.90
51500;DHT22;39101;53.478;6.158;2024-01-30T00:24:09;5.00;99.90
51500;DHT22;39101;53.478;6.158;2024-01-30T00:26:34;5.00;99.90
51500;DHT22;39101;53.478;6.158;2024-01-30T00:29:00;4.90;99.90
51500;DHT22;39101;53.478;6.158;2024-01-30T00:31:26;4.90;99.90
51500;DHT22;39101;53.478;6.158;2024-01-30T00:33:52;4.80;99.90
51500;DHT22;39101;53.478;6.158;2024-01-30T00:36:17;4.90;99.90
51500;DHT22;39101;53.478;6.158;2024-01-30T00:38:43;4.80;99.90
51500;DHT22;39101;53.478;6.158;2024-01-30T00:41:09;4.80;99.90
51500;DHT22;39101;53.478;6.158;2024-01-30T00:43:36;5.00;99.90
51500;DHT22;39101;53.478;6.158;2024-01-30T00:46:02;4.90;99.90
51500;DHT22;39101;53.478;6.158;2024-01-30T00:48:28;4.80;99.90
51500;DHT22;39101;53.478;6.158;2024-01-30T00:50:54;5.00;99.90
51500;DHT22;39101;53.478;6.158;2024-01-30T00:53:20;5.00;99.90
51500;DHT22;39101;53.478;6.158;2024-01-30T00:59:08;5.00;99.90
51500;DHT22;39101;53.478;6.158;2024-01-30T01:01:33;4.90;99.90
51500;DHT22;39101;53.478;6.158;2024-01-30T01:03:59;5.00;99.90
51500;DHT22;39101;53.478;6.158;2024-01-30T01:06:25;4.80;99.90
51500;DHT22;39101;53.478;6.158;2024-01-30T01:08:51;4.80;99.90
51500;DHT22;39101;53.478;6.158;2024-01-30T01:11:16;4.90;99.90
51500;DHT22;39101;53.478;6.158;2024-01-30T01:13:42;4.90;99.90
51500;DHT22;39101;53.478;6.158;2024-01-30T01:16:07;4.90;99.90
51500;DHT22;39101;53.478;6.158;2024-01-30T01:18:33;4.80;99.90
51500;DHT22;39101;53.478;6.158;2024-01-30T01:20:59;4.70;99.90
51500;DHT22;39101;53.478;6.158;2024-01-30T01:23:25;4.80;99.90
51500;DHT22;39101;53.478;6.158;2024-01-30T01:25:51;4.70;99.90
51500;DHT22;39101;53.478;6.158;2024-01-30T01:28:17;4.70;99.90
51500;DHT22;39101;53.478;6.158;2024-01-30T01:30:42;4.60;99.90
51500;DHT22;39101;53.478;6.158;2024-01-30T01:33:08;4.60;99.90
51500;DHT22;39101;53.478;6.158;2024-01-30T01:35:34;4.60;99.90
51500;DHT22;39101;53.478;6.158;2024-01-30T01:38:00;4.60;99.90
51500;DHT22;39101;53.478;6.158;2024-01-30T01:40:27;4.80;99.90
51500;DHT22;39101;53.478;6.158;2024-01-30T01:42:55;4.50;99.90
51500;DHT22;39101;53.478;6.158;2024-01-30T01:45:22;4.60;99.90
51500;DHT22;39101;53.478;6.158;2024-01-30T01:47:51;4.50;99.90
51500;DHT22;39101;53.478;6.158;2024-01-30T01:50:18;4.50;99.90
51500;DHT22;39101;53.478;6.158;2024-01-30T01:52:47;4.50;99.90
51500;DHT22;39101;53.478;6.158;2024-01-30T01:55:13;4.40;99.90
51500;DHT22;39101;53.478;6.158;2024-01-30T01:57:41;4.60;99.90
51500;DHT22;39101;53.478;6.158;2024-01-30T02:00:08;4.40;99.90
51500;DHT22;39101;53.478;6.158;2024-01-30T02:02:36;4.50;99.90
51500;DHT22;39101;53.478;6.158;2024-01-30T02:05:02;4.60;99.90
51500;DHT22;39101;53.478;6.158;2024-01-30T02:07:28;4.50;99.90
51500;DHT22;39101;53.478;6.158;2024-01-30T02:09:55;4.50;99.90
51500;DHT22;39101;53.478;6.158;2024-01-30T02:12:21;4.70;99.90
51500;DHT22;39101;53.478;6.158;2024-01-30T02:14:50;4.70;99.90
51500;DHT22;39101;53.478;6.158;2024-01-30T02:17:16;4.80;99.90
51500;DHT22;39101;53.478;6.158;2024-01-30T02:19:42;4.60;99.90
51500;DHT22;39101;53.478;6.158;2024-01-30T02:22:08;4.70;99.90
51500;DHT22;39101;53.478;6.158;2024-01-30T02:24:34;4.70;99.90
51500;DHT22;39101;53.478;6.158;2024-01-30T02:27:00;4.90;99.90
51500;DHT22;39101;53.478;6.158;2024-01-30T02:29:26;4.80;99.90
51500;DHT22;39101;53.478;6.158;2024-01-30T02:31:51;4.90;99.90
51500;DHT22;39101;53.478;6.158;2024-01-30T02:34:18;4.90;99.90
51500;DHT22;39101;53.478;6.158;2024-01-30T02:36:45;5.00;99.90
51500;DHT22;39101;53.478;6.158;2024-01-30T02:39:11;4.80;99.90
51500;DHT22;39101;53.478;6.158;2024-01-30T02:41:36;5.00;99.90
51500;DHT22;39101;53.478;6.158;2024-01-30T02:44:03;4.90;99.90
51500;DHT22;39101;53.478;6.158;2024-01-30T02:46:29;4.80;99.90
51500;DHT22;39101;53.478;6.158;2024-01-30T02:48:55;4.80;99.90
51500;DHT22;39101;53.478;6.158;2024-01-30T02:51:24;4.80;99.90
51500;DHT22;39101;53.478;6.158;2024-01-30T02:53:49;4.90;99.90
51500;DHT22;39101;53.478;6.158;2024-01-30T02:56:15;5.00;99.90
51500;DHT22;39101;53.478;6.158;2024-01-30T02:58:41;4.90;99.90
51500;DHT22;39101;53.478;6.158;2024-01-30T03:01:08;4.90;99.90
51500;DHT22;39101;53.478;6.158;2024-01-30T03:03:33;4.90;99.90
51500;DHT22;39101;53.478;6.158;2024-01-30T03:06:02;5.00;99.90
51500;DHT22;39101;53.478;6.158;2024-01-30T03:08:28;4.90;99.90
51500;DHT22;39101;53.478;6.158;2024-01-30T03:10:55;4.90;99.90
51500;DHT22;39101;53.478;6.158;2024-01-30T03:13:21;4.80;99.90
51500;DHT22;39101;53.478;6.158;2024-01-30T03:15:48;4.80;99.90
51500;DHT22;39101;53.478;6.158;2024-01-30T03:18:14;5.00;99.90
51500;DHT22;39101;53.478;6.158;2024-01-30T03:20:40;5.10;99.90
51500;DHT22;39101;53.478;6.158;2024-01-30T03:23:05;4.90;99.90
51500;DHT22;39101;53.478;6.158;2024-01-30T03:25:31;4.90;99.90
51500;DHT22;39101;53.478;6.158;2024-01-30T03:27:57;5.10;99.90
51500;DHT22;39101;53.478;6.158;2024-01-30T03:30:22;5.00;99.90
51500;DHT22;39101;53.478;6.158;2024-01-30T03:32:48;4.80;99.90
51500;DHT22;39101;53.478;6.158;2024-01-30T03:35:14;4.80;99.90
51500;DHT22;39101;53.478;6.158;2024-01-30T03:37:40;4.80;99.90
51500;DHT22;39101;53.478;6.158;2024-01-30T03:40:06;4.70;99.90
51500;DHT22;39101;53.478;6.158;2024-01-30T03:42:32;4.60;99.90
51500;DHT22;39101;53.478;6.158;2024-01-30T03:44:59;4.60;99.90
51500;DHT22;39101;53.478;6.158;2024-01-30T03:47:25;4.60;99.90
51500;DHT22;39101;53.478;6.158;2024-01-30T03:49:50;4.50;99.90
51500;DHT22;39101;53.478;6.158;2024-01-30T03:52:17;4.50;99.90
51500;DHT22;39101;53.478;6.158;2024-01-30T03:54:42;4.70;99.90
51500;DHT22;39101;53.478;6.158;2024-01-30T03:57:08;4.50;99.90
51500;DHT22;39101;53.478;6.158;2024-01-30T03:59:34;4.70;99.90
51500;DHT22;39101;53.478;6.158;2024-01-30T04:01:59;4.60;99.90
51500;DHT22;39101;53.478;6.158;2024-01-30T04:04:25;4.50;99.90
51500;DHT22;39101;53.478;6.158;2024-01-30T04:06:51;4.60;99.90
51500;DHT22;39101;53.478;6.158;2024-01-30T04:09:17;4.60;99.90
51500;DHT22;39101;53.478;6.158;2024-01-30T04:11:42;4.60;99.90
51500;DHT22;39101;53.478;6.158;2024-01-30T04:14:08;4.50;99.90
51500;DHT22;39101;53.478;6.158;2024-01-30T04:16:34;4.70;99.90
51500;DHT22;39101;53.478;6.158;2024-01-30T04:19:00;4.60;99.90
51500;DHT22;39101;53.478;6.158;2024-01-30T04:21:25;4.90;99.90
51500;DHT22;39101;53.478;6.158;2024-01-30T04:23:51;4.80;99.90
51500;DHT22;39101;53.478;6.158;2024-01-30T04:26:21;4.90;99.90
51500;DHT22;39101;53.478;6.158;2024-01-30T04:28:46;4.80;99.90
51500;DHT22;39101;53.478;6.158;2024-01-30T04:31:12;5.00;99.90
51500;DHT22;39101;53.478;6.158;2024-01-30T04:33:38;5.20;99.90
51500;DHT22;39101;53.478;6.158;2024-01-30T04:36:04;5.20;99.90
51500;DHT22;39101;53.478;6.158;2024-01-30T04:38:31;5.20;99.90
51500;DHT22;39101;53.478;6.158;2024-01-30T04:40:56;5.40;99.90
51500;DHT22;39101;53.478;6.158;2024-01-30T04:43:23;5.40;99.90
51500;DHT22;39101;53.478;6.158;2024-01-30T04:45:49;5.30;99.90
51500;DHT22;39101;53.478;6.158;2024-01-30T04:48:15;5.50;99.90
51500;DHT22;39101;53.478;6.158;2024-01-30T04:50:41;5.40;99.90
51500;DHT22;39101;53.478;6.158;2024-01-30T04:53:06;5.40;99.90
51500;DHT22;39101;53.478;6.158;2024-01-30T04:55:33;5.30;99.90
51500;DHT22;39101;53.478;6.158;2024-01-30T04:57:58;5.40;99.90
51500;DHT22;39101;53.478;6.158;2024-01-30T05:00:24;5.40;99.90
51500;DHT22;39101;53.478;6.158;2024-01-30T05:02:50;5.40;99.90
51500;DHT22;39101;53.478;6.158;2024-01-30T05:05:15;5.40;99.90
51500;DHT22;39101;53.478;6.158;2024-01-30T05:07:42;5.30;99.90
51500;DHT22;39101;53.478;6.158;2024-01-30T05:10:08;5.40;99.90
51500;DHT22;39101;53.478;6.158;2024-01-30T05:12:38;5.30;99.90
51500;DHT22;39101;53.478;6.158;2024-01-30T05:15:04;5.30;99.90
51500;DHT22;39101;53.478;6.158;2024-01-30T05:17:30;5.30;99.90
51500;DHT22;39101;53.478;6.158;2024-01-30T05:19:55;5.40;99.90
51500;DHT22;39101;53.478;6.158;2024-01-30T05:22:21;5.40;99.90
51500;DHT22;39101;53.478;6.158;2024-01-30T05:24:47;5.40;99.90
51500;DHT22;39101;53.478;6.158;2024-01-30T05:27:13;5.50;99.90
51500;DHT22;39101;53.478;6.158;2024-01-30T05:29:41;5.60;99.90
51500;DHT22;39101;53.478;6.158;2024-01-30T05:32:07;5.60;99.90
51500;DHT22;39101;53.478;6.158;2024-01-30T05:34:33;5.50;99.90
51500;DHT22;39101;53.478;6.158;2024-01-30T05:36:58;5.50;99.90
51500;DHT22;39101;53.478;6.158;2024-01-30T05:39:25;5.50;99.90
51500;DHT22;39101;53.478;6.158;2024-01-30T05:41:51;5.40;99.90
51500;DHT22;39101;53.478;6.158;2024-01-30T05:44:17;5.50;99.90
51500;DHT22;39101;53.478;6.158;2024-01-30T05:46:43;5.40;99.90
51500;DHT22;39101;53.478;6.158;2024-01-30T05:49:08;5.40;99.90
51500;DHT22;39101;53.478;6.158;2024-01-30T05:51:34;5.60;99.90
51500;DHT22;39101;53.478;6.158;2024-01-30T05:54:01;5.50;99.90
51500;DHT22;39101;53.478;6.158;2024-01-30T05:56:32;5.50;99.90
51500;DHT22;39101;53.478;6.158;2024-01-30T05:58:59;5.60;99.90
51500;DHT22;39101;53.478;6.158;2024-01-30T06:01:25;5.50;99.90
51500;DHT22;39101;53.478;6.158;2024-01-30T06:03:50;5.60;99.90
51500;DHT22;39101;53.478;6.158;2024-01-30T06:06:16;5.60;99.90
51500;DHT22;39101;53.478;6.158;2024-01-30T06:08:42;5.60;99.90
51500;DHT22;39101;53.478;6.158;2024-01-30T06:11:10;5.50;99.90
51500;DHT22;39101;53.478;6.158;2024-01-30T06:13:37;5.50;99.90
51500;DHT22;39101;53.478;6.158;2024-01-30T06:16:03;5.60;99.90
51500;DHT22;39101;53.478;6.158;2024-01-30T06:18:29;5.60;99.90
51500;DHT22;39101;53.478;6.158;2024-01-30T06:20:56;5.50;99.90
51500;DHT22;39101;53.478;6.158;2024-01-30T06:23:22;5.60;99.90
51500;DHT22;39101;53.478;6.158;2024-01-30T06:25:48;5.50;99.90
51500;DHT22;39101;53.478;6.158;2024-01-30T06:28:14;5.60;99.90
51500;DHT22;39101;53.478;6.158;2024-01-30T06:30:40;5.60;99.90
51500;DHT22;39101;53.478;6.158;2024-01-30T06:33:07;5.50;99.90
51500;DHT22;39101;53.478;6.158;2024-01-30T06:35:33;5.60;99.90
51500;DHT22;39101;53.478;6.158;2024-01-30T06:38:03;5.50;99.90
51500;DHT22;39101;53.478;6.158;2024-01-30T06:40:29;5.50;99.90
51500;DHT22;39101;53.478;6.158;2024-01-30T06:42:55;5.70;99.90
51500;DHT22;39101;53.478;6.158;2024-01-30T06:45:21;5.60;99.90
51500;DHT22;39101;53.478;6.158;2024-01-30T06:47:46;5.80;99.90
51500;DHT22;39101;53.478;6.158;2024-01-30T06:50:13;5.60;99.90
51500;DHT22;39101;53.478;6.158;2024-01-30T06:52:39;5.60;99.90
51500;DHT22;39101;53.478;6.158;2024-01-30T06:55:05;5.70;99.90
51500;DHT22;39101;53.478;6.158;2024-01-30T06:57:32;5.80;99.90
51500;DHT22;39101;53.478;6.158;2024-01-30T06:59:57;5.70;99.90
51500;DHT22;39101;53.478;6.158;2024-01-30T07:02:26;5.80;99.90
51500;DHT22;39101;53.478;6.158;2024-01-30T07:04:52;5.70;99.90
51500;DHT22;39101;53.478;6.158;2024-01-30T07:07:17;5.80;99.90
51500;DHT22;39101;53.478;6.158;2024-01-30T07:09:43;5.80;99.90
51500;DHT22;39101;53.478;6.158;2024-01-30T07:12:09;6.00;99.90
51500;DHT22;39101;53.478;6.158;2024-01-30T07:14:34;6.00;99.90
51500;DHT22;39101;53.478;6.158;2024-01-30T07:17:02;6.20;99.90
51500;DHT22;39101;53.478;6.158;2024-01-30T07:19:27;6.10;99.90
51500;DHT22;39101;53.478;6.158;2024-01-30T07:21:53;6.20;99.90
51500;DHT22;39101;53.478;6.158;2024-01-30T07:24:19;6.30;99.90
51500;DHT22;39101;53.478;6.158;2024-01-30T07:26:44;6.30;99.90
51500;DHT22;39101;53.478;6.158;2024-01-30T07:29:11;6.30;99.90
51500;DHT22;39101;53.478;6.158;2024-01-30T07:31:37;6.40;99.90
51500;DHT22;39101;53.478;6.158;2024-01-30T07:34:04;6.30;99.90
51500;DHT22;39101;53.478;6.158;2024-01-30T07:36:30;6.40;99.90
51500;DHT22;39101;53.478;6.158;2024-01-30T07:38:56;6.50;99.90
51500;DHT22;39101;53.478;6.158;2024-01-30T07:41:22;6.60;99.90
51500;DHT22;39101;53.478;6.158;2024-01-30T07:43:49;6.60;99.90
51500;DHT22;39101;53.478;6.158;2024-01-30T07:46:15;6.60;99.90
51500;DHT22;39101;53.478;6.158;2024-01-30T07:48:42;6.80;99.90
51500;DHT22;39101;53.478;6.158;2024-01-30T07:51:08;6.70;99.90
51500;DHT22;39101;53.478;6.158;2024-01-30T07:53:33;6.70;99.90
51500;DHT22;39101;53.478;6.158;2024-01-30T07:55:59;6.70;99.90
51500;DHT22;39101;53.478;6.158;2024-01-30T07:58:25;6.70;99.90
51500;DHT22;39101;53.478;6.158;2024-01-30T08:00:53;6.70;99.90
51500;DHT22;39101;53.478;6.158;2024-01-30T08:03:24;6.80;99.90
51500;DHT22;39101;53.478;6.158;2024-01-30T08:05:50;6.80;99.90
51500;DHT22;39101;53.478;6.158;2024-01-30T08:08:15;6.80;99.90
51500;DHT22;39101;53.478;6.158;2024-01-30T08:14:12;6.90;99.90
51500;DHT22;39101;53.478;6.158;2024-01-30T08:16:39;6.90;99.90
51500;DHT22;39101;53.478;6.158;2024-01-30T08:19:05;6.80;99.90
51500;DHT22;39101;53.478;6.158;2024-01-30T08:21:31;6.90;99.90
51500;DHT22;39101;53.478;6.158;2024-01-30T08:24:03;6.90;99.90
51500;DHT22;39101;53.478;6.158;2024-01-30T08:26:31;7.00;99.90
51500;DHT22;39101;53.478;6.158;2024-01-30T08:28:56;7.10;99.90
51500;DHT22;39101;53.478;6.158;2024-01-30T08:31:22;7.10;99.90
51500;DHT22;39101;53.478;6.158;2024-01-30T08:33:48;7.20;99.90
51500;DHT22;39101;53.478;6.158;2024-01-30T08:36:15;7.30;99.90
51500;DHT22;39101;53.478;6.158;2024-01-30T08:38:41;7.40;99.90
51500;DHT22;39101;53.478;6.158;2024-01-30T08:41:07;7.50;99.90
51500;DHT22;39101;53.478;6.158;2024-01-30T08:43:33;7.60;99.90
51500;DHT22;39101;53.478;6.158;2024-01-30T08:46:00;7.70;99.90
51500;DHT22;39101;53.478;6.158;2024-01-30T08:48:26;7.70;99.90
51500;DHT22;39101;53.478;6.158;2024-01-30T08:50:52;7.70;99.90
51500;DHT22;39101;53.478;6.158;2024-01-30T08:53:18;7.80;99.90
51500;DHT22;39101;53.478;6.158;2024-01-30T08:55:45;7.80;99.90
51500;DHT22;39101;53.478;6.158;2024-01-30T08:58:11;7.80;99.90
51500;DHT22;39101;53.478;6.158;2024-01-30T09:00:37;7.80;99.90
51500;DHT22;39101;53.478;6.158;2024-01-30T09:03:03;7.90;99.90
51500;DHT22;39101;53.478;6.158;2024-01-30T09:05:29;7.90;99.90
51500;DHT22;39101;53.478;6.158;2024-01-30T09:07:55;7.90;99.90
51500;DHT22;39101;53.478;6.158;2024-01-30T09:10:22;7.90;99.90
51500;DHT22;39101;53.478;6.158;2024-01-30T09:12:48;8.00;99.90
51500;DHT22;39101;53.478;6.158;2024-01-30T09:15:15;8.00;99.90
51500;DHT22;39101;53.478;6.158;2024-01-30T09:17:40;8.10;99.90
51500;DHT22;39101;53.478;6.158;2024-01-30T09:20:06;8.00;99.90
51500;DHT22;39101;53.478;6.158;2024-01-30T09:22:37;8.10;99.90
51500;DHT22;39101;53.478;6.158;2024-01-30T09:25:03;8.00;99.90
51500;DHT22;39101;53.478;6.158;2024-01-30T09:27:28;8.00;99.90
51500;DHT22;39101;53.478;6.158;2024-01-30T09:29:54;8.00;99.90
51500;DHT22;39101;53.478;6.158;2024-01-30T09:32:21;8.10;99.90
51500;DHT22;39101;53.478;6.158;2024-01-30T09:34:47;8.10;99.90
51500;DHT22;39101;53.478;6.158;2024-01-30T09:37:13;8.10;99.90
51500;DHT22;39101;53.478;6.158;2024-01-30T09:39:40;8.10;99.90
51500;DHT22;39101;53.478;6.158;2024-01-30T09:42:29;8.30;99.90
51500;DHT22;39101;53.478;6.158;2024-01-30T09:44:58;8.20;99.90
51500;DHT22;39101;53.478;6.158;2024-01-30T09:47:27;8.20;99.90
51500;DHT22;39101;53.478;6.158;2024-01-30T09:49:53;8.10;99.90
51500;DHT22;39101;53.478;6.158;2024-01-30T09:52:20;8.20;99.90
51500;DHT22;39101;53.478;6.158;2024-01-30T09:54:46;8.20;99.90
51500;DHT22;39101;53.478;6.158;2024-01-30T09:57:14;8.20;99.90
51500;DHT22;39101;53.478;6.158;2024-01-30T09:59:42;8.30;99.90
51500;DHT22;39101;53.478;6.158;2024-01-30T10:02:12;8.30;99.90
51500;DHT22;39101;53.478;6.158;2024-01-30T10:04:39;8.30;99.90
51500;DHT22;39101;53.478;6.158;2024-01-30T10:07:05;8.40;99.90
51500;DHT22;39101;53.478;6.158;2024-01-30T10:09:32;8.50;99.90
51500;DHT22;39101;53.478;6.158;2024-01-30T10:11:59;8.60;99.90
51500;DHT22;39101;53.478;6.158;2024-01-30T10:14:25;8.60;99.90
51500;DHT22;39101;53.478;6.158;2024-01-30T10:16:51;8.60;99.90
51500;DHT22;39101;53.478;6.158;2024-01-30T10:19:17;8.70;99.90
51500;DHT22;39101;53.478;6.158;2024-01-30T10:21:42;8.80;99.90
51500;DHT22;39101;53.478;6.158;2024-01-30T10:24:11;8.80;99.90
51500;DHT22;39101;53.478;6.158;2024-01-30T10:26:39;8.90;99.90
51500;DHT22;39101;53.478;6.158;2024-01-30T10:29:05;8.90;99.90
51500;DHT22;39101;53.478;6.158;2024-01-30T10:31:34;8.90;99.90
51500;DHT22;39101;53.478;6.158;2024-01-30T10:34:00;8.90;99.90
51500;DHT22;39101;53.478;6.158;2024-01-30T10:36:28;8.90;99.90
51500;DHT22;39101;53.478;6.158;2024-01-30T10:38:59;9.00;99.90
51500;DHT22;39101;53.478;6.158;2024-01-30T10:41:31;9.00;99.90
51500;DHT22;39101;53.478;6.158;2024-01-30T10:47:33;8.90;99.90
51500;DHT22;39101;53.478;6.158;2024-01-30T10:49:59;8.90;99.90
51500;DHT22;39101;53.478;6.158;2024-01-30T10:52:26;8.90;99.90
51500;DHT22;39101;53.478;6.158;2024-01-30T10:54:54;8.90;99.90
51500;DHT22;39101;53.478;6.158;2024-01-30T10:57:23;8.80;99.90
51500;DHT22;39101;53.478;6.158;2024-01-30T10:59:52;8.80;99.90
51500;DHT22;39101;53.478;6.158;2024-01-30T11:02:19;8.80;99.90
51500;DHT22;39101;53.478;6.158;2024-01-30T11:04:46;8.70;99.90
51500;DHT22;39101;53.478;6.158;2024-01-30T11:07:23;8.80;99.90
51500;DHT22;39101;53.478;6.158;2024-01-30T11:12:25;8.80;99.90
51500;DHT22;39101;53.478;6.158;2024-01-30T11:17:43;8.90;99.90
51500;DHT22;39101;53.478;6.158;2024-01-30T11:20:15;8.90;99.90
51500;DHT22;39101;53.478;6.158;2024-01-30T11:22:44;8.80;99.90
51500;DHT22;39101;53.478;6.158;2024-01-30T11:25:15;8.80;99.90
51500;DHT22;39101;53.478;6.158;2024-01-30T11:27:43;8.80;99.90
51500;DHT22;39101;53.478;6.158;2024-01-30T11:30:34;8.80;99.90
51500;DHT22;39101;53.478;6.158;2024-01-30T11:33:07;8.80;99.90
51500;DHT22;39101;53.478;6.158;2024-01-30T11:35:41;8.80;99.90
51500;DHT22;39101;53.478;6.158;2024-01-30T11:38:27;8.80;99.90
51500;DHT22;39101;53.478;6.158;2024-01-30T11:40:54;8.80;99.90
51500;DHT22;39101;53.478;6.158;2024-01-30T11:47:00;8.80;99.90
51500;DHT22;39101;53.478;6.158;2024-01-30T11:49:25;8.70;99.90
51500;DHT22;39101;53.478;6.158;2024-01-30T11:51:52;8.70;99.90
51500;DHT22;39101;53.478;6.158;2024-01-30T11:54:18;8.70;99.90
51500;DHT22;39101;53.478;6.158;2024-01-30T11:56:44;8.60;99.90
51500;DHT22;39101;53.478;6.158;2024-01-30T11:59:10;8.60;99.90
51500;DHT22;39101;53.478;6.158;2024-01-30T12:01:36;8.50;99.90
51500;DHT22;39101;53.478;6.158;2024-01-30T12:04:03;8.50;99.90
51500;DHT22;39101;53.478;6.158;2024-01-30T12:06:34;8.50;99.90
51500;DHT22;39101;53.478;6.158;2024-01-30T12:09:01;8.50;99.90
51500;DHT22;39101;53.478;6.158;2024-01-30T12:11:30;8.50;99.90
51500;DHT22;39101;53.478;6.158;2024-01-30T12:13:56;8.40;99.90
51500;DHT22;39101;53.478;6.158;2024-01-30T12:16:23;8.40;99.90
51500;DHT22;39101;53.478;6.158;2024-01-30T12:19:00;8.40;99.90
51500;DHT22;39101;53.478;6.158;2024-01-30T12:21:30;8.40;99.90
51500;DHT22;39101;53.478;6.158;2024-01-30T12:23:57;8.40;99.90
51500;DHT22;39101;53.478;6.158;2024-01-30T12:26:24;8.30;99.90
51500;DHT22;39101;53.478;6.158;2024-01-30T12:28:56;8.50;99.90
51500;DHT22;39101;53.478;6.158;2024-01-30T12:31:32;8.40;99.90
51500;DHT22;39101;53.478;6.158;2024-01-30T12:34:00;8.40;99.90
51500;DHT22;39101;53.478;6.158;2024-01-30T12:36:26;8.40;99.90
51500;DHT22;39101;53.478;6.158;2024-01-30T12:38:52;8.50;99.90
51500;DHT22;39101;53.478;6.158;2024-01-30T12:41:19;8.40;99.90
51500;DHT22;39101;53.478;6.158;2024-01-30T12:43:45;8.40;99.90
51500;DHT22;39101;53.478;6.158;2024-01-30T12:46:13;8.50;99.90
51500;DHT22;39101;53.478;6.158;2024-01-30T12:48:38;8.50;99.90
51500;DHT22;39101;53.478;6.158;2024-01-30T12:51:04;8.50;99.90
51500;DHT22;39101;53.478;6.158;2024-01-30T12:53:30;8.50;99.90
51500;DHT22;39101;53.478;6.158;2024-01-30T12:55:59;8.50;99.90
51500;DHT22;39101;53.478;6.158;2024-01-30T12:58:25;8.50;99.90
51500;DHT22;39101;53.478;6.158;2024-01-30T13:00:51;8.50;99.90
51500;DHT22;39101;53.478;6.158;2024-01-30T13:03:17;8.50;99.90
51500;DHT22;39101;53.478;6.158;2024-01-30T13:05:44;8.40;99.90
51500;DHT22;39101;53.478;6.158;2024-01-30T13:08:09;8.50;99.90
51500;DHT22;39101;53.478;6.158;2024-01-30T13:10:35;8.40;99.90
51500;DHT22;39101;53.478;6.158;2024-01-30T13:13:01;8.40;99.90
51500;DHT22;39101;53.478;6.158;2024-01-30T13:15:27;8.40;99.90
51500;DHT22;39101;53.478;6.158;2024-01-30T13:17:53;8.50;99.90
51500;DHT22;39101;53.478;6.158;2024-01-30T13:20:19;8.40;99.90
51500;DHT22;39101;53.478;6.158;2024-01-30T13:22:49;8.40;99.90
51500;DHT22;39101;53.478;6.158;2024-01-30T13:25:15;8.40;99.90
51500;DHT22;39101;53.478;6.158;2024-01-30T13:27:41;8.40;99.90
51500;DHT22;39101;53.478;6.158;2024-01-30T13:30:07;8.50;99.90
51500;DHT22;39101;53.478;6.158;2024-01-30T13:32:35;8.40;99.90
51500;DHT22;39101;53.478;6.158;2024-01-30T13:35:00;8.50;99.90
51500;DHT22;39101;53.478;6.158;2024-01-30T13:37:26;8.40;99.90
51500;DHT22;39101;53.478;6.158;2024-01-30T13:39:52;8.40;99.90
51500;DHT22;39101;53.478;6.158;2024-01-30T13:42:18;8.40;99.90
51500;DHT22;39101;53.478;6.158;2024-01-30T13:44:44;8.40;99.90
51500;DHT22;39101;53.478;6.158;2024-01-30T13:47:10;8.40;99.90
51500;DHT22;39101;53.478;6.158;2024-01-30T13:49:36;8.40;99.90
51500;DHT22;39101;53.478;6.158;2024-01-30T13:52:02;8.40;99.90
51500;DHT22;39101;53.478;6.158;2024-01-30T13:54:29;8.40;99.90
51500;DHT22;39101;53.478;6.158;2024-01-30T13:56:56;8.30;99.90
51500;DHT22;39101;53.478;6.158;2024-01-30T13:59:22;8.40;99.90
51500;DHT22;39101;53.478;6.158;2024-01-30T14:01:50;8.40;99.90
51500;DHT22;39101;53.478;6.158;2024-01-30T14:04:16;8.30;99.90
51500;DHT22;39101;53.478;6.158;2024-01-30T14:06:42;8.30;99.90
51500;DHT22;39101;53.478;6.158;2024-01-30T14:09:08;8.30;99.90
51500;DHT22;39101;53.478;6.158;2024-01-30T14:11:33;8.30;99.90
51500;DHT22;39101;53.478;6.158;2024-01-30T14:13:59;8.20;99.90
51500;DHT22;39101;53.478;6.158;2024-01-30T14:16:25;8.20;99.90
51500;DHT22;39101;53.478;6.158;2024-01-30T14:18:51;8.30;99.90
51500;DHT22;39101;53.478;6.158;2024-01-30T14:21:16;8.30;99.90
51500;DHT22;39101;53.478;6.158;2024-01-30T14:23:42;8.30;99.90
51500;DHT22;39101;53.478;6.158;2024-01-30T14:26:08;8.20;99.90
51500;DHT22;39101;53.478;6.158;2024-01-30T14:28:33;8.30;99.90
51500;DHT22;39101;53.478;6.158;2024-01-30T14:31:00;8.30;99.90
51500;DHT22;39101;53.478;6.158;2024-01-30T14:33:26;8.20;99.90
51500;DHT22;39101;53.478;6.158;2024-01-30T14:35:51;8.30;99.90
51500;DHT22;39101;53.478;6.158;2024-01-30T14:38:17;8.30;99.90
51500;DHT22;39101;53.478;6.158;2024-01-30T14:40:47;8.30;99.90
51500;DHT22;39101;53.478;6.158;2024-01-30T14:43:13;8.30;99.90
51500;DHT22;39101;53.478;6.158;2024-01-30T14:48:47;8.20;99.90
51500;DHT22;39101;53.478;6.158;2024-01-30T14:51:14;8.20;99.90
51500;DHT22;39101;53.478;6.158;2024-01-30T14:53:39;8.20;99.90
51500;DHT22;39101;53.478;6.158;2024-01-30T14:56:05;8.20;99.90
51500;DHT22;39101;53.478;6.158;2024-01-30T14:58:33;8.20;99.90
51500;DHT22;39101;53.478;6.158;2024-01-30T15:00:58;8.20;99.90
51500;DHT22;39101;53.478;6.158;2024-01-30T15:03:24;8.20;99.90
51500;DHT22;39101;53.478;6.158;2024-01-30T15:05:50;8.10;99.90
51500;DHT22;39101;53.478;6.158;2024-01-30T15:08:15;7.50;99.90
51500;DHT22;39101;53.478;6.158;2024-01-30T15:10:41;8.10;99.90
51500;DHT22;39101;53.478;6.158;2024-01-30T15:13:07;8.10;99.90
51500;DHT22;39101;53.478;6.158;2024-01-30T15:15:33;8.10;99.90
51500;DHT22;39101;53.478;6.158;2024-01-30T15:17:59;8.00;99.90
51500;DHT22;39101;53.478;6.158;2024-01-30T15:20:26;8.10;99.90
51500;DHT22;39101;53.478;6.158;2024-01-30T15:22:52;8.00;99.90
51500;DHT22;39101;53.478;6.158;2024-01-30T15:25:18;8.00;99.90
51500;DHT22;39101;53.478;6.158;2024-01-30T15:27:43;8.00;99.90
51500;DHT22;39101;53.478;6.158;2024-01-30T15:30:11;7.90;99.90
51500;DHT22;39101;53.478;6.158;2024-01-30T15:32:40;7.90;99.90
51500;DHT22;39101;53.478;6.158;2024-01-30T15:35:06;7.90;99.90
51500;DHT22;39101;53.478;6.158;2024-01-30T15:37:32;7.80;99.90
51500;DHT22;39101;53.478;6.158;2024-01-30T15:39:58;7.70;99.90
51500;DHT22;39101;53.478;6.158;2024-01-30T15:42:24;7.70;99.90
51500;DHT22;39101;53.478;6.158;2024-01-30T15:48:31;7.50;99.90
51500;DHT22;39101;53.478;6.158;2024-01-30T15:50:56;7.50;99.90
51500;DHT22;39101;53.478;6.158;2024-01-30T15:53:22;7.50;99.90
51500;DHT22;39101;53.478;6.158;2024-01-30T15:55:50;7.30;99.90
51500;DHT22;39101;53.478;6.158;2024-01-30T15:58:15;7.40;99.90
51500;DHT22;39101;53.478;6.158;2024-01-30T16:00:41;7.30;99.90
51500;DHT22;39101;53.478;6.158;2024-01-30T16:03:07;7.20;99.90
51500;DHT22;39101;53.478;6.158;2024-01-30T16:05:32;7.20;99.90
51500;DHT22;39101;53.478;6.158;2024-01-30T16:07:58;7.30;99.90